Time;durP1;ratioP1;P1;durP2;ratioP2;P2;SDS_P1;SDS_P2;PMS_P1;PMS_P2;Temp;Humidity;BMP_temperature;BMP_pressure;BME280_temperature;BME280_humidity;BME280_pressure;Samples;Min_cycle;Max_cycle;Signal;HPM_P1;HPM_P2
2021/12/01 00:00:36;;;;;;;1.30;1.20;;;15.00;63.60;;;;;;5053767;28;20493;-70
2021/12/01 00:03:03;;;;;;;2.53;1.30;;;15.40;63.90;;;;;;5053313;28;20424;-69
2021/12/01 00:05:30;;;;;;;1.60;1.20;;;15.40;63.80;;;;;;5053838;28;20062;-71
2021/12/01 00:07:59;;;;;;;1.60;1.20;;;15.50;64.30;;;;;;5053746;28;20478;-69
2021/12/01 00:10:26;;;;;;;1.48;1.27;;;15.00;63.70;;;;;;5053311;28;20056;-70
2021/12/01 00:12:53;;;;;;;2.55;1.30;;;15.50;64.20;;;;;;5053533;28;20509;-70
2021/12/01 00:15:20;;;;;;;2.05;1.40;;;15.30;64.00;;;;;;5071265;28;20131;-70
2021/12/01 00:17:47;;;;;;;1.75;1.35;;;15.10;63.80;;;;;;5070790;28;20050;-70
2021/12/01 00:20:14;;;;;;;1.63;1.20;;;15.30;64.00;;;;;;5071239;28;20055;-70
2021/12/01 00:22:41;;;;;;;1.77;1.20;;;15.30;64.10;;;;;;5053383;28;20052;-70
2021/12/01 00:25:10;;;;;;;1.73;1.33;;;15.30;64.10;;;;;;5071425;28;20044;-70
2021/12/01 00:27:37;;;;;;;1.45;1.27;;;15.30;64.20;;;;;;5071014;28;20054;-70
2021/12/01 00:30:04;;;;;;;1.45;1.25;;;15.30;64.30;;;;;;5053360;28;20055;-70
2021/12/01 00:32:30;;;;;;;1.77;1.40;;;15.00;64.10;;;;;;5070950;28;20516;-70
2021/12/01 00:34:59;;;;;;;1.60;1.38;;;15.30;64.10;;;;;;5071174;28;20048;-70
2021/12/01 00:37:25;;;;;;;1.92;1.30;;;15.40;64.20;;;;;;5053491;28;20562;-70
2021/12/01 00:39:52;;;;;;;2.10;1.35;;;15.00;64.00;;;;;;5053201;28;20048;-69
2021/12/01 00:42:20;;;;;;;1.52;1.27;;;15.00;64.10;;;;;;5053512;28;20106;-69
2021/12/01 00:44:55;;;;;;;1.63;1.27;;;15.20;64.10;;;;;;5053206;28;20497;-70
2021/12/01 00:47:23;;;;;;;1.50;1.20;;;15.20;64.50;;;;;;5053460;28;20084;-70
2021/12/01 00:49:49;;;;;;;1.63;1.30;;;15.00;64.00;;;;;;5070687;28;20044;-70
2021/12/01 00:52:16;;;;;;;1.60;1.35;;;14.90;64.30;;;;;;5071151;28;20533;-69
2021/12/01 00:54:43;;;;;;;1.50;1.30;;;15.20;64.30;;;;;;5052923;28;20074;-70
2021/12/01 00:57:09;;;;;;;1.98;1.45;;;15.20;64.40;;;;;;5053236;28;20059;-69
2021/12/01 00:59:38;;;;;;;1.42;1.30;;;15.30;64.30;;;;;;5071100;28;20052;-69
2021/12/01 01:02:05;;;;;;;2.10;1.30;;;15.10;64.40;;;;;;5053029;28;20058;-70
2021/12/01 01:04:32;;;;;;;1.92;1.42;;;15.10;64.40;;;;;;5055323;28;20498;-69
2021/12/01 01:06:58;;;;;;;1.58;1.35;;;14.90;59.80;;;;;;5056156;28;20053;-69
2021/12/01 01:09:31;;;;;;;1.70;1.33;;;15.10;60.60;;;;;;5056290;28;20056;-70
2021/12/01 01:17:37;;;;;;;;;;;15.10;59.20;;;;;;5057031;28;20056;-69
2021/12/01 01:20:05;;;;;;;1.40;1.23;;;15.00;59.10;;;;;;5056380;28;19924;-70
2021/12/01 01:22:32;;;;;;;1.60;1.48;;;15.00;64.50;;;;;;5056088;28;20056;-70
2021/12/01 01:24:58;;;;;;;1.30;1.10;;;14.40;64.20;;;;;;5056147;28;20052;-70
2021/12/01 01:27:25;;;;;;;1.40;1.30;;;15.10;64.70;;;;;;5056459;28;20186;-70
2021/12/01 01:29:53;;;;;;;1.73;1.33;;;14.90;64.70;;;;;;5074123;28;20053;-70
2021/12/01 01:32:20;;;;;;;1.50;1.20;;;15.30;64.90;;;;;;5055891;28;20063;-70
2021/12/01 01:34:46;;;;;;;1.80;1.33;;;14.70;64.50;;;;;;5074115;28;20059;-70
2021/12/01 01:37:13;;;;;;;1.80;1.33;;;15.10;64.50;;;;;;5073959;28;20052;-69
2021/12/01 01:39:40;;;;;;;1.70;1.40;;;15.00;64.50;;;;;;5055899;28;20485;-69
2021/12/01 01:42:07;;;;;;;1.40;1.20;;;15.20;65.00;;;;;;5056151;28;20059;-69
2021/12/01 01:44:33;;;;;;;1.58;1.13;;;14.80;64.50;;;;;;5073895;28;20076;-69
2021/12/01 01:47:02;;;;;;;1.52;1.27;;;15.00;62.10;;;;;;5073581;28;20048;-69
2021/12/01 01:49:42;;;;;;;1.60;1.20;;;15.00;64.40;;;;;;5055570;28;20052;-70
2021/12/01 01:52:09;;;;;;;1.50;1.27;;;14.50;64.20;;;;;;5072504;28;20048;-69
2021/12/01 01:54:36;;;;;;;1.65;1.30;;;15.00;64.70;;;;;;5055734;28;20063;-69
2021/12/01 01:57:02;;;;;;;1.77;1.40;;;15.00;64.60;;;;;;5055527;28;20060;-70
2021/12/01 01:59:29;;;;;;;1.60;1.30;;;14.90;64.70;;;;;;5055570;28;20051;-70
2021/12/01 02:01:57;;;;;;;1.85;1.48;;;14.90;64.50;;;;;;5073482;28;20048;-69
2021/12/01 02:04:27;;;;;;;1.85;1.58;;;15.00;64.60;;;;;;5055627;28;20084;-70
2021/12/01 02:06:54;;;;;;;1.80;1.38;;;14.90;64.70;;;;;;5055536;28;20071;-69
2021/12/01 02:09:21;;;;;;;2.05;1.40;;;14.80;62.00;;;;;;5055231;28;20048;-69
2021/12/01 02:11:48;;;;;;;1.60;1.20;;;14.70;64.60;;;;;;5055594;28;20140;-70
2021/12/01 02:14:16;;;;;;;1.70;1.20;;;14.90;64.60;;;;;;5054584;28;20337;-70
2021/12/01 02:16:42;;;;;;;1.33;1.23;;;14.60;64.40;;;;;;5055309;28;20052;-70
2021/12/01 02:19:09;;;;;;;1.42;1.33;;;15.00;64.90;;;;;;5073139;28;20135;-70
2021/12/01 02:21:37;;;;;;;2.63;1.50;;;14.90;64.70;;;;;;5073099;28;20052;-70
2021/12/01 02:24:06;;;;;;;1.80;1.42;;;14.80;64.70;;;;;;5055031;28;20666;-69
2021/12/01 02:26:34;;;;;;;1.90;1.40;;;14.80;64.60;;;;;;5055256;28;20486;-70
2021/12/01 02:29:02;;;;;;;1.95;1.40;;;15.00;63.90;;;;;;5054933;28;20059;-70
2021/12/01 02:31:33;;;;;;;1.50;1.30;;;14.90;64.60;;;;;;5072569;28;20489;-70
2021/12/01 02:34:00;;;;;;;2.08;1.20;;;14.80;64.90;;;;;;5073007;28;20044;-69
2021/12/01 02:36:27;;;;;;;3.00;1.40;;;14.90;64.60;;;;;;5054624;28;20063;-70
2021/12/01 02:38:56;;;;;;;1.98;1.35;;;14.90;64.90;;;;;;5054892;28;20071;-69
2021/12/01 02:41:26;;;;;;;2.03;1.50;;;14.90;59.00;;;;;;5055015;28;20059;-69
2021/12/01 02:43:53;;;;;;;1.45;1.33;;;14.90;65.00;;;;;;5054653;28;20087;-70
2021/12/01 02:46:20;;;;;;;2.25;1.35;;;14.90;64.70;;;;;;5054597;28;20056;-69
2021/12/01 02:48:47;;;;;;;2.45;1.40;;;14.90;64.70;;;;;;5054350;28;20086;-69
2021/12/01 02:51:14;;;;;;;2.13;1.20;;;14.90;64.70;;;;;;5072464;28;20060;-70
2021/12/01 02:53:41;;;;;;;1.88;1.55;;;14.90;65.00;;;;;;5054639;28;20125;-69
2021/12/01 02:56:09;;;;;;;1.50;1.15;;;14.80;59.20;;;;;;5072478;28;20052;-70
2021/12/01 02:58:40;;;;;;;1.23;1.10;;;15.00;63.50;;;;;;5054127;28;20067;-69
2021/12/01 03:01:09;;;;;;;1.42;1.30;;;14.80;64.90;;;;;;5054492;28;20052;-69
2021/12/01 03:03:36;;;;;;;1.55;1.10;;;14.40;59.90;;;;;;5054196;28;20482;-69
2021/12/01 03:06:03;;;;;;;2.10;1.30;;;14.50;64.50;;;;;;5054585;28;20056;-69
2021/12/01 03:08:29;;;;;;;1.80;1.40;;;15.00;64.90;;;;;;5053959;28;20052;-69
2021/12/01 03:10:56;;;;;;;1.77;1.30;;;14.90;64.10;;;;;;5071348;28;20045;-70
2021/12/01 03:13:25;;;;;;;1.30;1.20;;;15.70;65.30;;;;;;5071051;28;20085;-69
2021/12/01 03:15:51;;;;;;;2.00;1.25;;;14.50;64.50;;;;;;5072127;28;20051;-70
2021/12/01 03:18:18;;;;;;;1.63;1.17;;;14.80;63.00;;;;;;5054223;28;20059;-69
2021/12/01 03:20:46;;;;;;;1.20;1.10;;;15.00;65.00;;;;;;5071785;28;20048;-70
2021/12/01 03:23:13;;;;;;;1.20;1.08;;;14.80;64.70;;;;;;5053864;28;20053;-69
2021/12/01 03:25:40;;;;;;;1.45;1.20;;;14.90;64.90;;;;;;5054276;28;20139;-69
2021/12/01 03:28:07;;;;;;;2.67;1.13;;;14.90;65.10;;;;;;5053779;28;20059;-70
2021/12/01 03:30:37;;;;;;;2.00;1.30;;;14.80;59.10;;;;;;5053621;28;20048;-69
2021/12/01 03:33:07;;;;;;;1.45;1.20;;;14.90;62.10;;;;;;5054061;28;20059;-70
2021/12/01 03:35:33;;;;;;;1.33;1.20;;;15.30;65.20;;;;;;5071733;28;20515;-69
2021/12/01 03:38:00;;;;;;;1.98;1.33;;;14.90;65.00;;;;;;5053595;28;20055;-70
2021/12/01 03:40:27;;;;;;;1.38;1.15;;;14.90;62.80;;;;;;5053970;28;20052;-70
2021/12/01 03:42:54;;;;;;;1.20;1.10;;;14.90;64.80;;;;;;5053692;28;20405;-69
2021/12/01 03:45:20;;;;;;;1.80;1.20;;;14.80;64.70;;;;;;5053628;28;20062;-70
2021/12/01 03:47:48;;;;;;;1.83;1.20;;;14.80;64.60;;;;;;5071909;28;20052;-70
2021/12/01 03:50:15;;;;;;;1.08;0.98;;;14.80;65.00;;;;;;5053903;28;20106;-70
2021/12/01 03:52:42;;;;;;;1.80;1.02;;;14.90;64.70;;;;;;5053851;28;20114;-69
2021/12/01 03:55:09;;;;;;;1.67;1.10;;;14.80;65.00;;;;;;5071399;28;20048;-70
2021/12/01 03:57:36;;;;;;;1.20;1.00;;;14.70;64.90;;;;;;5070336;28;20058;-70
2021/12/01 04:00:03;;;;;;;1.48;1.17;;;15.00;64.80;;;;;;5053765;28;20052;-70
2021/12/01 04:02:29;;;;;;;1.15;1.00;;;14.90;65.00;;;;;;5053899;28;20481;-70
2021/12/01 04:04:57;;;;;;;1.20;1.00;;;15.50;65.10;;;;;;5053171;28;20131;-70
2021/12/01 04:07:24;;;;;;;1.30;1.00;;;14.80;64.90;;;;;;5071544;28;20048;-70
2021/12/01 04:09:51;;;;;;;1.13;0.98;;;14.90;64.70;;;;;;5053739;28;20049;-69
2021/12/01 04:12:18;;;;;;;0.90;0.90;;;14.90;64.80;;;;;;5053589;28;20060;-70
2021/12/01 04:14:45;;;;;;;0.80;0.80;;;14.80;65.00;;;;;;5053225;28;20083;-71
2021/12/01 04:17:12;;;;;;;1.25;1.00;;;14.50;64.40;;;;;;5053680;28;20058;-70
2021/12/01 04:19:38;;;;;;;0.88;0.88;;;14.90;65.00;;;;;;5070882;28;20048;-69
2021/12/01 04:22:06;;;;;;;0.93;0.82;;;14.80;64.90;;;;;;5071443;28;20560;-70
2021/12/01 04:24:33;;;;;;;1.05;0.90;;;;;;;;;;5053398;28;20056;-70
2021/12/01 04:27:00;;;;;;;1.20;0.90;;;14.90;65.00;;;;;;5053459;28;20117;-70
2021/12/01 04:29:27;;;;;;;0.90;0.80;;;14.50;64.50;;;;;;5053228;28;20109;-69
2021/12/01 04:31:54;;;;;;;0.70;0.70;;;14.90;64.90;;;;;;5053276;28;20131;-70
2021/12/01 04:34:21;;;;;;;0.90;0.80;;;14.60;64.60;;;;;;5053370;28;20048;-69
2021/12/01 04:36:49;;;;;;;1.05;0.80;;;14.80;64.60;;;;;;5070277;28;20521;-70
2021/12/01 04:39:17;;;;;;;0.68;0.68;;;14.90;65.00;;;;;;5055140;28;20102;-69
2021/12/01 04:41:50;;;;;;;0.90;0.80;;;14.90;64.90;;;;;;5057190;28;20048;-70
2021/12/01 04:44:17;;;;;;;0.70;0.65;;;14.90;64.80;;;;;;5074005;28;20137;-69
2021/12/01 04:46:46;;;;;;;0.95;0.80;;;14.20;64.60;;;;;;5056924;28;20087;-70
2021/12/01 04:49:13;;;;;;;1.10;0.77;;;15.00;64.80;;;;;;5057323;28;20551;-69
2021/12/01 04:51:41;;;;;;;1.00;0.80;;;15.00;64.80;;;;;;5057052;28;20048;-69
2021/12/01 04:54:07;;;;;;;0.73;0.73;;;14.90;64.90;;;;;;5074532;28;20400;-70
2021/12/01 04:56:36;;;;;;;1.20;0.80;;;14.90;64.80;;;;;;5073916;28;20063;-70
2021/12/01 04:59:03;;;;;;;0.93;0.80;;;15.00;64.60;;;;;;5073789;28;20056;-70
2021/12/01 05:01:30;;;;;;;1.23;0.75;;;14.90;64.90;;;;;;5056783;28;20049;-71
2021/12/01 05:03:57;;;;;;;1.08;0.82;;;14.60;64.40;;;;;;5056301;28;20052;-70
2021/12/01 05:06:23;;;;;;;0.63;0.63;;;15.10;65.10;;;;;;5056306;28;20048;-70
2021/12/01 05:08:50;;;;;;;1.00;0.75;;;14.90;64.60;;;;;;5070580;28;20133;-69
2021/12/01 05:11:17;;;;;;;0.90;0.80;;;14.80;64.80;;;;;;5056037;28;20470;-70
2021/12/01 05:13:45;;;;;;;1.20;0.80;;;14.80;64.50;;;;;;5074066;28;20048;-70
2021/12/01 05:16:12;;;;;;;0.73;0.73;;;15.00;64.80;;;;;;5071785;28;20044;-70
2021/12/01 05:18:38;;;;;;;1.20;1.10;;;15.10;64.70;;;;;;5056087;28;20056;-70
2021/12/01 05:21:05;;;;;;;0.75;0.75;;;15.00;64.90;;;;;;5055676;28;20494;-70
2021/12/01 05:23:32;;;;;;;1.00;0.80;;;15.10;64.90;;;;;;5056120;28;20094;-69
2021/12/01 05:25:59;;;;;;;0.85;0.70;;;14.40;64.50;;;;;;5056443;28;20071;-73
2021/12/01 05:28:25;;;;;;;0.63;0.60;;;15.20;64.80;;;;;;5056471;28;20489;-73
2021/12/01 05:30:55;;;;;;;0.93;0.90;;;15.00;64.80;;;;;;5056381;28;20076;-73
2021/12/01 05:33:22;;;;;;;0.70;0.70;;;14.50;64.30;;;;;;5056390;28;20059;-73
2021/12/01 05:35:49;;;;;;;0.70;0.70;;;15.20;64.90;;;;;;5056123;28;20055;-73
2021/12/01 05:38:16;;;;;;;0.85;0.65;;;15.10;65.00;;;;;;5056195;28;20084;-73
2021/12/01 05:40:43;;;;;;;0.60;0.60;;;14.40;64.30;;;;;;5056209;28;20075;-72
2021/12/01 05:43:09;;;;;;;0.60;0.57;;;15.20;64.90;;;;;;5056395;28;20113;-73
2021/12/01 05:45:36;;;;;;;0.68;0.68;;;15.20;64.70;;;;;;5056253;28;20400;-72
2021/12/01 05:48:05;;;;;;;0.50;0.50;;;15.20;59.60;;;;;;5056230;28;20088;-73
2021/12/01 05:50:32;;;;;;;1.75;0.70;;;;;;;;;;5055764;28;20485;-73
2021/12/01 05:52:58;;;;;;;0.73;0.70;;;15.70;64.80;;;;;;5072565;28;20060;-72
2021/12/01 05:55:25;;;;;;;0.60;0.50;;;15.20;64.20;;;;;;5055957;28;20060;-73
2021/12/01 05:57:52;;;;;;;0.50;0.50;;;15.10;64.30;;;;;;5035788;28;20092;-73
2021/12/01 06:00:19;;;;;;;0.40;0.40;;;15.30;64.30;;;;;;5035743;28;20052;-73
2021/12/01 06:02:49;;;;;;;0.57;0.57;;;14.60;63.80;;;;;;5054401;28;20052;-72
2021/12/01 06:05:17;;;;;;;0.70;0.60;;;15.00;63.90;;;;;;5056153;28;20514;-73
2021/12/01 06:07:44;;;;;;;0.60;0.60;;;15.10;64.20;;;;;;5055325;28;20049;-73
2021/12/01 06:10:11;;;;;;;0.60;0.60;;;15.70;64.50;;;;;;5055412;28;20055;-73
2021/12/01 06:12:39;;;;;;;0.50;0.50;;;15.10;63.90;;;;;;5055827;28;20185;-73
2021/12/01 06:15:08;;;;;;;0.73;0.50;;;15.00;63.80;;;;;;5055855;28;20087;-73
2021/12/01 06:17:34;;;;;;;0.50;0.50;;;15.50;64.30;;;;;;5035813;28;20057;-73
2021/12/01 06:20:01;;;;;;;0.57;0.57;;;15.60;64.30;;;;;;5053932;28;20413;-73
2021/12/01 06:22:29;;;;;;;1.00;0.80;;;15.70;64.20;;;;;;5055441;28;20056;-73
2021/12/01 06:24:56;;;;;;;0.30;0.30;;;15.70;64.20;;;;;;5055347;28;20052;-73
2021/12/01 06:27:25;;;;;;;0.50;0.50;;;15.00;63.80;;;;;;5054987;28;20127;-73
2021/12/01 06:29:52;;;;;;;0.40;0.40;;;15.90;64.00;;;;;;5054814;28;20676;-73
2021/12/01 06:32:19;;;;;;;1.98;0.50;;;15.80;64.10;;;;;;5054862;28;20127;-73
2021/12/01 06:34:45;;;;;;;0.40;0.40;;;15.70;64.10;;;;;;5055148;28;20052;-73
2021/12/01 06:37:12;;;;;;;0.40;0.40;;;15.90;64.00;;;;;;5072954;28;20047;-73
2021/12/01 06:39:40;;;;;;;0.55;0.55;;;15.30;63.90;;;;;;5054936;28;20131;-73
2021/12/01 06:42:07;;;;;;;0.40;0.40;;;15.80;59.10;;;;;;5055137;28;20048;-73
2021/12/01 06:44:33;;;;;;;0.52;0.50;;;16.50;64.70;;;;;;5054702;28;20052;-71
2021/12/01 06:47:00;;;;;;;0.30;0.30;;;15.10;63.50;;;;;;5055028;28;20048;-73
2021/12/01 06:49:27;;;;;;;1.00;0.60;;;15.80;63.90;;;;;;5054561;28;20476;-72
2021/12/01 06:51:54;;;;;;;0.38;0.38;;;16.00;64.20;;;;;;5054576;28;20051;-72
2021/12/01 06:54:20;;;;;;;0.40;0.40;;;15.80;64.00;;;;;;5054775;28;20063;-72
2021/12/01 06:56:48;;;;;;;0.32;0.32;;;16.70;64.60;;;;;;5054799;28;20408;-73
2021/12/01 06:59:15;;;;;;;0.50;0.50;;;15.90;64.10;;;;;;5054767;28;20048;-72
2021/12/01 07:01:42;;;;;;;0.40;0.40;;;15.90;63.60;;;;;;5053518;28;20052;-72
2021/12/01 07:04:08;;;;;;;0.68;0.68;;;16.00;64.00;;;;;;5054699;28;20072;-73
2021/12/01 07:06:35;;;;;;;0.60;0.60;;;16.00;64.10;;;;;;5054754;28;20135;-73
2021/12/01 07:09:02;;;;;;;0.50;0.50;;;15.50;63.70;;;;;;5072276;28;20041;-73
2021/12/01 07:11:29;;;;;;;0.60;0.60;;;15.20;63.40;;;;;;5052751;28;20072;-73
2021/12/01 07:13:57;;;;;;;0.40;0.40;;;16.60;64.10;;;;;;5053607;28;20135;-72
2021/12/01 07:16:24;;;;;;;0.35;0.35;;;15.30;63.70;;;;;;5052871;28;20492;-72
2021/12/01 07:18:51;;;;;;;0.40;0.40;;;16.20;63.90;;;;;;5052564;28;20098;-72
2021/12/01 07:21:18;;;;;;;0.32;0.32;;;;;;;;;;5053261;28;20416;-72
2021/12/01 07:23:45;;;;;;;0.40;0.40;;;16.10;65.20;;;;;;5054041;28;20060;-72
2021/12/01 07:26:11;;;;;;;0.70;0.50;;;16.80;60.80;;;;;;5054067;28;20060;-73
2021/12/01 07:28:38;;;;;;;0.40;0.40;;;16.90;63.30;;;;;;5054347;28;20056;-72
2021/12/01 07:31:06;;;;;;;0.40;0.40;;;15.30;63.50;;;;;;5054296;28;20051;-73
2021/12/01 07:33:33;;;;;;;0.40;0.40;;;16.40;64.90;;;;;;5054289;28;20400;-73
2021/12/01 07:36:00;;;;;;;0.50;0.50;;;;;;;;;;5054340;28;20130;-73
2021/12/01 07:38:27;;;;;;;0.38;0.38;;;15.00;63.20;;;;;;5053908;28;20049;-73
2021/12/01 07:40:54;;;;;;;1.77;0.98;;;16.10;64.00;;;;;;5054158;28;20060;-73
2021/12/01 07:43:20;;;;;;;1.88;0.88;;;16.10;63.90;;;;;;5053565;28;20048;-72
2021/12/01 07:45:47;;;;;;;3.00;0.93;;;16.10;64.20;;;;;;5071528;28;20443;-73
2021/12/01 07:48:15;;;;;;;1.88;0.90;;;15.10;63.70;;;;;;5053189;28;20055;-73
2021/12/01 07:50:42;;;;;;;1.38;0.85;;;15.20;63.70;;;;;;5054014;28;20056;-73
2021/12/01 07:53:09;;;;;;;1.67;1.10;;;15.30;63.70;;;;;;5054066;28;20135;-73
2021/12/01 07:55:36;;;;;;;3.47;1.27;;;15.90;64.00;;;;;;5054073;28;20052;-73
2021/12/01 07:58:02;;;;;;;1.23;0.93;;;16.10;64.20;;;;;;5054023;28;20412;-73
2021/12/01 08:00:29;;;;;;;3.53;0.98;;;15.20;63.50;;;;;;5053392;28;20048;-73
2021/12/01 08:02:56;;;;;;;3.67;1.00;;;16.40;64.20;;;;;;5053675;28;20052;-73
2021/12/01 08:05:24;;;;;;;0.60;0.60;;;16.00;64.20;;;;;;5054043;28;20132;-73
2021/12/01 08:07:51;;;;;;;1.13;0.70;;;16.90;64.40;;;;;;5053556;28;20051;-73
2021/12/01 08:10:18;;;;;;;1.45;0.90;;;16.20;64.30;;;;;;5053866;28;20131;-73
2021/12/01 08:12:45;;;;;;;2.80;1.00;;;;;;;;;;5071445;28;20123;-73
2021/12/01 08:15:12;;;;;;;1.98;0.75;;;15.80;64.00;;;;;;5057838;28;20139;-74
2021/12/01 08:17:39;;;;;;;0.70;0.63;;;16.10;64.20;;;;;;5057884;28;20059;-73
2021/12/01 08:20:06;;;;;;;1.98;0.88;;;15.50;63.80;;;;;;5057510;28;20054;-73
2021/12/01 08:22:35;;;;;;;1.42;0.80;;;16.30;64.00;;;;;;5057709;28;20131;-73
2021/12/01 08:25:01;;;;;;;2.15;0.80;;;16.20;64.10;;;;;;5057768;28;20048;-74
2021/12/01 08:27:28;;;;;;;2.75;1.10;;;16.30;64.00;;;;;;5057509;28;20062;-73
2021/12/01 08:29:55;;;;;;;1.63;0.98;;;17.00;64.30;;;;;;5057585;28;20062;-73
2021/12/01 08:32:22;;;;;;;1.25;0.80;;;16.90;64.30;;;;;;5057399;28;20060;-73
2021/12/01 08:34:51;;;;;;;1.20;0.80;;;15.40;63.40;;;;;;5057360;28;20056;-73
2021/12/01 08:37:18;;;;;;;0.60;0.60;;;16.30;63.30;;;;;;5075184;28;20076;-73
2021/12/01 08:39:48;;;;;;;1.63;0.90;;;16.20;58.50;;;;;;5073926;28;20060;-74
2021/12/01 08:42:14;;;;;;;0.85;0.70;;;15.90;63.60;;;;;;5056777;28;20055;-74
2021/12/01 08:44:45;;;;;;;1.17;0.80;;;;;;;;;;5074803;28;20055;-74
2021/12/01 08:47:12;;;;;;;1.20;0.82;;;;;;;;;;5057513;28;20059;-73
2021/12/01 08:49:38;;;;;;;0.73;0.60;;;16.10;64.20;;;;;;5057406;28;20131;-70
2021/12/01 08:52:06;;;;;;;1.48;0.68;;;17.00;64.40;;;;;;5056919;28;20059;-73
2021/12/01 08:54:32;;;;;;;1.02;0.65;;;16.30;64.10;;;;;;5057250;28;20082;-71
2021/12/01 08:57:00;;;;;;;1.92;0.70;;;16.40;64.00;;;;;;5056778;28;20058;-73
2021/12/01 08:59:27;;;;;;;0.88;0.70;;;16.30;59.20;;;;;;5049282;28;20059;-73
2021/12/01 09:01:54;;;;;;;0.90;0.70;;;16.20;64.30;;;;;;5056894;28;20051;-74
2021/12/01 09:04:21;;;;;;;0.52;0.50;;;16.10;64.10;;;;;;5056842;28;20052;-74
2021/12/01 09:06:47;;;;;;;2.13;0.70;;;16.20;64.00;;;;;;5049869;28;20044;-73
2021/12/01 09:09:18;;;;;;;0.70;0.70;;;16.60;64.50;;;;;;5051189;28;20056;-74
2021/12/01 09:11:45;;;;;;;1.10;0.68;;;16.40;64.00;;;;;;5073127;28;20040;-74
2021/12/01 09:14:13;;;;;;;0.75;0.50;;;16.40;63.90;;;;;;5056759;28;20102;-74
2021/12/01 09:16:41;;;;;;;1.05;0.65;;;16.50;64.30;;;;;;5073283;28;20441;-74
2021/12/01 09:19:08;;;;;;;3.97;0.75;;;17.00;64.20;;;;;;5073598;28;20052;-74
2021/12/01 09:21:34;;;;;;;0.50;0.50;;;16.30;59.10;;;;;;5073343;28;20048;-74
2021/12/01 09:24:01;;;;;;;0.90;0.50;;;16.50;65.00;;;;;;5053165;28;20475;-74
2021/12/01 09:26:28;;;;;;;1.20;0.80;;;16.30;63.80;;;;;;5036323;28;20053;-74
2021/12/01 09:28:55;;;;;;;0.57;0.50;;;16.50;64.20;;;;;;5047942;28;20048;-74
2021/12/01 09:31:23;;;;;;;1.33;0.80;;;16.10;64.50;;;;;;5056510;28;20409;-74
2021/12/01 09:33:49;;;;;;;1.38;0.60;;;15.60;63.60;;;;;;5056525;28;20048;-74
2021/12/01 09:36:16;;;;;;;0.68;0.50;;;15.30;63.50;;;;;;5056546;28;20048;-74
2021/12/01 09:38:43;;;;;;;0.52;0.52;;;16.50;64.30;;;;;;5055940;28;20086;-74
2021/12/01 09:41:10;;;;;;;0.70;0.50;;;16.50;64.20;;;;;;5056559;28;20382;-74
2021/12/01 09:43:36;;;;;;;0.45;0.45;;;16.20;63.80;;;;;;5054604;28;20508;-74
2021/12/01 09:46:04;;;;;;;2.08;0.85;;;16.50;64.00;;;;;;5056315;28;20390;-74
2021/12/01 09:48:33;;;;;;;0.50;0.50;;;16.30;59.00;;;;;;5051654;28;20064;-74
2021/12/01 09:51:00;;;;;;;0.55;0.47;;;15.60;63.50;;;;;;5053008;28;20128;-74
2021/12/01 09:53:26;;;;;;;1.02;0.63;;;16.40;63.90;;;;;;5035935;28;20666;-74
2021/12/01 09:55:53;;;;;;;0.65;0.60;;;16.40;63.80;;;;;;5063069;28;20561;-73
2021/12/01 09:58:22;;;;;;;0.60;0.50;;;16.50;64.00;;;;;;5055611;28;20197;-73
2021/12/01 10:00:50;;;;;;;1.45;0.60;;;16.30;63.80;;;;;;5056094;28;20110;-73
2021/12/01 10:03:17;;;;;;;0.80;0.60;;;16.50;64.20;;;;;;5055911;28;20482;-73
2021/12/01 10:05:53;;;;;;;0.80;0.50;;;16.20;64.00;;;;;;5073664;28;20044;-73
2021/12/01 10:08:21;;;;;;;0.60;0.60;;;16.00;64.50;;;;;;5056025;28;20536;-73
2021/12/01 10:10:48;;;;;;;1.17;0.60;;;15.70;63.60;;;;;;5055874;28;20155;-73
2021/12/01 10:13:15;;;;;;;0.55;0.50;;;16.30;64.00;;;;;;5055373;28;20055;-73
2021/12/01 10:15:42;;;;;;;0.77;0.65;;;16.40;64.00;;;;;;5055763;28;20050;-73
2021/12/01 10:18:11;;;;;;;0.95;0.70;;;16.10;64.10;;;;;;5055410;28;20058;-73
2021/12/01 10:20:38;;;;;;;1.25;0.60;;;16.40;64.10;;;;;;5072359;28;20405;-73
2021/12/01 10:23:11;;;;;;;1.40;0.70;;;16.40;64.20;;;;;;5055470;28;20401;-70
2021/12/01 10:25:38;;;;;;;0.63;0.60;;;16.40;64.30;;;;;;5053790;28;20562;-73
2021/12/01 10:28:05;;;;;;;0.73;0.60;;;17.00;64.20;;;;;;5055450;28;20062;-73
2021/12/01 10:30:38;;;;;;;1.42;0.80;;;15.80;63.50;;;;;;5054982;28;20144;-73
2021/12/01 10:33:09;;;;;;;0.95;0.60;;;16.20;59.00;;;;;;5055152;28;20045;-74
2021/12/01 10:35:36;;;;;;;1.48;0.57;;;16.20;63.90;;;;;;5054348;28;20052;-74
2021/12/01 10:38:04;;;;;;;0.75;0.60;;;15.70;63.70;;;;;;5055014;28;20131;-73
2021/12/01 10:40:32;;;;;;;1.27;0.50;;;15.20;63.50;;;;;;5054611;28;20140;-73
2021/12/01 10:43:00;;;;;;;0.73;0.60;;;16.80;64.40;;;;;;5055093;28;20052;-73
2021/12/01 10:45:28;;;;;;;0.95;0.60;;;16.10;64.10;;;;;;5055208;28;20062;-74
2021/12/01 10:47:54;;;;;;;2.60;0.80;;;16.70;64.20;;;;;;5054984;28;20059;-72
2021/12/01 10:50:23;;;;;;;1.35;0.90;;;15.80;63.60;;;;;;5055307;28;20144;-73
2021/12/01 10:52:51;;;;;;;1.27;0.70;;;16.30;64.50;;;;;;5054607;28;20071;-73
2021/12/01 10:55:18;;;;;;;2.92;1.00;;;15.40;63.90;;;;;;5054752;28;20059;-71
2021/12/01 10:57:48;;;;;;;4.10;0.95;;;15.60;64.10;;;;;;5048316;28;20053;-73
2021/12/01 11:00:17;;;;;;;1.20;0.80;;;15.50;63.90;;;;;;5054618;28;20409;-73
2021/12/01 11:02:43;;;;;;;1.17;0.73;;;16.00;64.60;;;;;;5054398;28;20405;-70
2021/12/01 11:05:10;;;;;;;2.03;0.82;;;16.30;64.20;;;;;;5052979;28;20636;-73
2021/12/01 11:07:37;;;;;;;1.75;0.82;;;16.10;64.30;;;;;;5053085;28;20088;-73
2021/12/01 11:10:11;;;;;;;4.90;0.95;;;16.30;64.70;;;;;;5053054;28;20063;-73
2021/12/01 11:12:38;;;;;;;2.25;0.90;;;15.70;64.40;;;;;;5053307;28;20052;-73
2021/12/01 11:15:18;;;;;;;2.22;0.90;;;16.30;64.30;;;;;;5054628;28;20063;-73
2021/12/01 11:17:44;;;;;;;2.33;0.98;;;16.80;64.80;;;;;;5054611;28;20052;-73
2021/12/01 11:20:11;;;;;;;3.88;0.80;;;16.10;64.70;;;;;;5053741;28;20058;-73
2021/12/01 11:22:38;;;;;;;1.83;0.80;;;16.20;65.10;;;;;;5054316;28;20128;-73
2021/12/01 11:25:19;;;;;;;1.52;0.70;;;16.00;64.50;;;;;;5054532;28;20477;-74
2021/12/01 11:27:46;;;;;;;2.22;0.75;;;15.30;63.90;;;;;;5054476;28;20056;-70
2021/12/01 11:30:13;;;;;;;3.42;0.93;;;16.10;59.60;;;;;;5053958;28;20078;-72
2021/12/01 11:32:41;;;;;;;2.50;0.80;;;16.70;64.80;;;;;;5053369;28;20448;-73
2021/12/01 11:35:08;;;;;;;1.95;0.93;;;16.70;65.00;;;;;;5052679;28;20056;-72
2021/12/01 11:37:35;;;;;;;1.77;1.00;;;15.30;63.80;;;;;;5054093;28;20535;-73
2021/12/01 11:40:02;;;;;;;2.72;0.90;;;15.30;64.10;;;;;;5054168;28;20090;-73
2021/12/01 11:42:29;;;;;;;2.78;0.90;;;16.10;64.30;;;;;;5054148;28;20054;-73
2021/12/01 11:44:56;;;;;;;3.25;0.93;;;16.10;59.60;;;;;;5053906;28;20481;-73
2021/12/01 11:47:22;;;;;;;2.25;0.80;;;16.10;64.30;;;;;;5053246;28;20055;-73
2021/12/01 11:49:51;;;;;;;3.75;0.90;;;16.10;59.60;;;;;;5054081;28;20147;-73
2021/12/01 11:52:17;;;;;;;2.47;0.93;;;16.40;64.60;;;;;;5053925;28;20059;-73
2021/12/01 11:54:45;;;;;;;2.65;1.02;;;16.50;64.50;;;;;;5053886;28;20401;-73
2021/12/01 11:57:11;;;;;;;2.05;0.70;;;16.90;64.70;;;;;;5053912;28;20059;-73
2021/12/01 11:59:38;;;;;;;2.42;0.77;;;16.20;64.60;;;;;;5053953;28;20056;-73
2021/12/01 12:02:07;;;;;;;1.77;0.90;;;16.00;64.00;;;;;;5053706;28;20063;-73
2021/12/01 12:04:42;;;;;;;2.40;1.10;;;16.20;64.50;;;;;;5053678;28;20386;-73
2021/12/01 12:07:13;;;;;;;1.80;0.80;;;16.10;64.40;;;;;;5053007;28;20052;-72
2021/12/01 12:09:40;;;;;;;1.58;0.88;;;15.60;64.30;;;;;;5053129;28;20045;-73
2021/12/01 12:12:17;;;;;;;1.98;0.90;;;15.40;64.10;;;;;;5053128;28;20135;-73
2021/12/01 12:14:51;;;;;;;2.65;1.33;;;16.20;64.70;;;;;;5068020;28;20731;-73
2021/12/01 12:17:19;;;;;;;1.17;0.80;;;15.70;64.40;;;;;;5050025;28;20508;-74
2021/12/01 12:20:14;;;;;;;4.47;1.20;;;15.40;63.80;;;;;;5053012;28;20055;-73
2021/12/01 12:23:02;;;;;;;2.47;1.05;;;15.70;64.00;;;;;;5050813;28;20044;-73
2021/12/01 12:25:42;;;;;;;2.35;1.05;;;16.00;64.30;;;;;;5052548;28;20110;-69
2021/12/01 12:28:26;;;;;;;2.40;1.55;;;16.10;64.50;;;;;;5053616;28;20057;-73
2021/12/01 12:30:53;;;;;;;2.55;0.90;;;16.30;64.50;;;;;;5071574;28;20044;-74
2021/12/01 12:33:21;;;;;;;2.55;1.02;;;16.20;64.40;;;;;;5053451;28;20405;-73
2021/12/01 12:35:49;;;;;;;3.42;1.00;;;16.60;65.80;;;;;;5053622;28;20506;-73
2021/12/01 12:38:17;;;;;;;2.67;1.10;;;16.30;64.40;;;;;;5053325;28;20486;-74
2021/12/01 12:40:44;;;;;;;2.38;1.00;;;16.10;64.30;;;;;;5053770;28;20056;-73
2021/12/01 12:43:11;;;;;;;2.70;1.10;;;16.30;64.30;;;;;;5053523;28;20054;-73
2021/12/01 12:45:39;;;;;;;4.32;1.05;;;16.30;64.30;;;;;;5052483;28;20557;-73
2021/12/01 12:48:24;;;;;;;2.85;1.02;;;16.30;64.40;;;;;;5053408;28;20048;-74
2021/12/01 12:51:14;;;;;;;3.28;0.93;;;15.90;64.40;;;;;;5052967;28;20049;-73
2021/12/01 12:54:14;;;;;;;2.58;1.05;;;15.90;63.80;;;;;;5071097;28;20466;-73
2021/12/01 12:56:44;;;;;;;3.65;1.08;;;15.30;63.80;;;;;;5053581;28;20056;-74
2021/12/01 12:59:22;;;;;;;2.60;1.00;;;16.30;64.00;;;;;;5053156;28;20059;-74